Dogue, Virginia
Current Conditions -  °F | °C
As of 4:55 PM on Monday 20 Oct 2014 (Local Time) from KEZF Reporting Station
Clear Clear  
Wind Chill: 68°   Ceiling: Unl
Heat Index: 68°   Visibility: 10mi
Dew Point: 46°   Wind: 9mph
Humidity: 45%   Direction: 190°S
Pressure: 29.94"   Gusts: NA
Location:  38.23°N, 77.22°W
Report Text: KEZF 202055Z AUTO 19008KT 10SM CLR 20/08 A2994 RMK AO2 T02010078
Loading
Personal Weather Stations






























Interactive Weather Map
Tropical Storm Tracking
New forecast layout! Learn more

10-Day Weather Forecast

Advertisements
Track Severe Weather on mobile